Time;durP1;ratioP1;P1;durP2;ratioP2;P2;SDS_P1;SDS_P2;PMS_P1;PMS_P2;Temp;Humidity;BMP_temperature;BMP_pressure;BME280_temperature;BME280_humidity;BME280_pressure;Samples;Min_cycle;Max_cycle;Signal;HPM_P1;HPM_P2
2022/08/16 00:00:57;;;;;;;7.90;4.40;;;;;;;20.66;67.20;98126.05;108000;1290;22314;-86
2022/08/16 00:03:42;;;;;;;9.20;5.10;;;;;;;20.64;67.08;98127.42;107624;1290;22476;-86
2022/08/16 00:06:31;;;;;;;8.20;4.70;;;;;;;20.61;67.13;98126.88;107654;1290;22485;-85
2022/08/16 00:09:23;;;;;;;;;;;;;;;;;;;;;
2022/08/16 00:12:23;;;;;;;;;;;;;;;;;;;;;
2022/08/16 00:15:18;;;;;;;;;;;;;;;;;;;;;
2022/08/16 00:18:08;;;;;;;8.20;4.60;;;;;;;20.56;67.03;98131.17;108674;1282;22226;-85
2022/08/16 00:20:41;;;;;;;10.70;4.80;;;;;;;20.53;67.02;98127.96;108772;1282;23180;-85
2022/08/16 00:23:17;;;;;;;10.30;4.80;;;;;;;20.49;66.92;98126.66;108545;1282;22176;-86
2022/08/16 00:25:46;;;;;;;11.30;4.70;;;;;;;20.45;66.96;98128.66;108758;1282;22560;-86
2022/08/16 00:28:16;;;;;;;9.30;4.60;;;;;;;20.44;66.91;98131.16;108976;1282;22271;-86
2022/08/16 00:30:43;;;;;;;7.70;4.10;;;;;;;20.41;66.84;98132.50;108745;1281;22450;-87
2022/08/16 00:33:21;;;;;;;7.50;4.00;;;;;;;20.39;66.96;98128.84;108783;1282;22252;-86
2022/08/16 00:35:48;;;;;;;10.10;4.50;;;;;;;20.37;66.95;98128.82;108642;1282;23295;-86
2022/08/16 00:38:18;;;;;;;8.20;4.70;;;;;;;20.39;66.82;98130.59;108766;1282;22953;-85
2022/08/16 00:40:49;;;;;;;8.90;4.50;;;;;;;20.39;66.77;98130.13;108742;1282;22408;-85
2022/08/16 00:43:26;;;;;;;7.80;4.40;;;;;;;20.37;66.85;98136.87;108756;1282;22440;-85
2022/08/16 00:46:17;;;;;;;8.80;4.50;;;;;;;20.38;66.73;98140.68;108746;1282;22169;-85
2022/08/16 00:48:50;;;;;;;8.30;4.60;;;;;;;20.35;66.87;98138.66;108984;1282;22592;-85
2022/08/16 00:51:22;;;;;;;8.20;4.40;;;;;;;20.30;66.82;98145.40;108635;1282;22253;-85
2022/08/16 00:53:55;;;;;;;8.50;4.50;;;;;;;20.24;66.66;98149.52;108647;1281;22564;-85
2022/08/16 00:56:31;;;;;;;9.90;4.80;;;;;;;20.14;66.71;98159.45;108720;1282;22357;-85
2022/08/16 00:59:02;;;;;;;7.50;3.80;;;;;;;20.05;66.73;98160.46;108745;1282;22472;-85
2022/08/16 01:01:31;;;;;;;8.50;5.10;;;;;;;19.95;66.73;98158.91;108616;1281;22366;-85
2022/08/16 01:04:02;;;;;;;10.00;4.40;;;;;;;19.88;66.92;98163.48;108750;1282;23437;-85
2022/08/16 01:06:35;;;;;;;9.00;4.90;;;;;;;19.89;66.87;98159.74;108980;1281;22431;-85
2022/08/16 01:09:15;;;;;;;9.10;5.20;;;;;;;19.91;66.97;98163.40;108727;1282;22423;-85
2022/08/16 01:11:46;;;;;;;7.70;4.40;;;;;;;19.92;67.01;98166.38;108707;1284;22987;-85
2022/08/16 01:14:25;;;;;;;10.00;4.70;;;;;;;19.95;66.97;98173.04;108726;1282;22366;-85
2022/08/16 01:16:56;;;;;;;8.80;4.60;;;;;;;19.92;66.90;98172.41;108644;1282;22258;-85
2022/08/16 01:19:41;;;;;;;7.80;4.20;;;;;;;19.88;66.89;98172.09;108746;1282;22366;-85
2022/08/16 01:22:46;;;;;;;11.00;4.80;;;;;;;19.87;66.83;98174.03;108592;1284;22348;-85
2022/08/16 01:25:19;;;;;;;7.60;4.20;;;;;;;19.90;66.91;98176.05;108748;1282;22535;-85
2022/08/16 01:27:53;;;;;;;8.50;4.30;;;;;;;19.87;67.00;98168.23;108750;1282;22493;-86
2022/08/16 01:30:28;;;;;;;7.70;4.30;;;;;;;19.86;66.94;98166.05;108634;1282;22543;-85
2022/08/16 01:33:01;;;;;;;8.50;4.70;;;;;;;19.85;66.87;98163.91;108748;1282;22524;-85
2022/08/16 01:35:34;;;;;;;11.40;4.90;;;;;;;19.81;66.89;98163.04;108700;1282;22206;-85
2022/08/16 01:38:24;;;;;;;8.50;4.80;;;;;;;19.70;66.99;98164.88;108996;1281;23199;-85
2022/08/16 01:41:05;;;;;;;9.40;4.50;;;;;;;19.56;66.89;98164.23;108780;1282;22326;-84
2022/08/16 01:43:35;;;;;;;9.10;4.50;;;;;;;19.47;66.99;98164.55;108642;1282;22462;-85
2022/08/16 01:46:06;;;;;;;8.30;4.40;;;;;;;19.45;67.14;98163.56;108516;1282;22328;-85
2022/08/16 01:48:35;;;;;;;8.00;4.10;;;;;;;19.41;67.07;98163.33;108636;1282;22460;-85
2022/08/16 01:51:03;;;;;;;7.90;4.10;;;;;;;19.38;67.27;98155.71;108994;1282;22233;-82
2022/08/16 01:53:39;;;;;;;7.90;4.50;;;;;;;19.38;66.93;98156.89;108753;1282;22245;-84
2022/08/16 01:56:18;;;;;;;8.70;4.30;;;;;;;19.27;67.05;98158.04;108754;1282;22481;-84
2022/08/16 01:58:51;;;;;;;8.00;4.40;;;;;;;19.26;67.27;98162.64;108740;1282;22712;-84
2022/08/16 02:01:21;;;;;;;10.70;4.60;;;;;;;19.26;67.37;98164.29;108546;1282;22198;-84
2022/08/16 02:03:53;;;;;;;8.70;4.90;;;;;;;19.23;67.16;98169.93;109000;1281;22609;-84
2022/08/16 02:06:20;;;;;;;9.70;4.40;;;;;;;19.09;67.18;98173.33;108747;1282;22247;-84
2022/08/16 02:08:56;;;;;;;8.20;4.30;;;;;;;18.99;67.19;98172.02;108650;1282;22362;-85
2022/08/16 02:11:26;;;;;;;9.00;4.30;;;;;;;18.95;67.35;98172.77;108779;1282;23050;-84
2022/08/16 02:13:58;;;;;;;9.50;4.50;;;;;;;19.00;67.51;98177.05;108740;1282;23081;-84
2022/08/16 02:16:41;;;;;;;11.30;5.10;;;;;;;18.97;67.48;98168.52;108730;1282;22779;-84
2022/08/16 02:19:11;;;;;;;9.80;4.30;;;;;;;18.95;67.39;98172.20;108571;1282;22251;-83
2022/08/16 02:21:44;;;;;;;9.50;4.60;;;;;;;18.88;67.36;98174.67;108989;1281;22307;-84
2022/08/16 02:24:11;;;;;;;10.80;5.20;;;;;;;18.83;67.69;98171.77;108763;1282;23055;-84
2022/08/16 02:26:41;;;;;;;11.00;4.90;;;;;;;18.79;67.70;98166.37;108714;1282;22609;-84
2022/08/16 02:29:22;;;;;;;11.70;5.00;;;;;;;18.71;67.70;98166.93;108660;1282;22210;-85
2022/08/16 02:31:52;;;;;;;10.70;4.50;;;;;;;18.69;67.84;98167.12;108722;1282;22405;-84
2022/08/16 02:34:23;;;;;;;9.20;4.20;;;;;;;18.65;67.92;98165.82;108726;1282;22347;-84
2022/08/16 02:36:51;;;;;;;8.60;4.20;;;;;;;18.67;67.93;98170.24;108634;1282;22437;-84
2022/08/16 02:39:29;;;;;;;9.40;4.50;;;;;;;18.62;67.80;98157.18;108742;1282;22342;-84
2022/08/16 02:41:59;;;;;;;8.00;4.60;;;;;;;18.66;67.99;98156.01;108730;1282;22427;-84
2022/08/16 02:44:31;;;;;;;11.70;4.40;;;;;;;18.67;67.93;98156.20;108763;1282;22360;-84
2022/08/16 02:47:01;;;;;;;8.70;4.70;;;;;;;18.72;68.04;98163.23;108712;1282;22177;-85
2022/08/16 02:49:42;;;;;;;10.00;5.00;;;;;;;18.69;68.03;98160.01;108735;1282;22472;-84
2022/08/16 02:52:10;;;;;;;9.50;4.20;;;;;;;18.64;67.95;98158.29;108768;1282;22307;-84
2022/08/16 02:54:43;;;;;;;9.10;4.20;;;;;;;18.52;67.82;98164.87;108496;1282;22306;-84
2022/08/16 02:57:25;;;;;;;;;;;;;;;;;;;;;
2022/08/16 03:00:19;;;;;;;;;;;;;;;;;;;;;
2022/08/16 03:03:05;;;;;;;9.80;4.60;;;;;;;18.49;68.22;98173.55;108757;1282;22404;-85
2022/08/16 03:06:05;;;;;;;10.70;4.70;;;;;;;18.55;68.33;98178.35;108775;1282;22502;-84
2022/08/16 03:08:52;;;;;;;9.10;4.60;;;;;;;18.55;68.34;98182.59;108972;1282;22365;-85
2022/08/16 03:11:44;;;;;;;;;;;;;;;;;;;;;
2022/08/16 03:14:40;;;;;;;8.70;4.60;;;;;;;18.45;68.15;98189.00;108736;1282;22453;-84
2022/08/16 03:18:02;;;;;;;10.80;4.50;;;;;;;18.38;68.26;98191.30;108773;1282;22415;-85
2022/08/16 03:20:48;;;;;;;;;;;;;;;;;;;;;
2022/08/16 03:24:04;;;;;;;;;;;;;;;;;;;;;
2022/08/16 03:26:48;;;;;;;10.70;5.60;;;;;;;18.37;68.59;98184.03;108727;1282;22359;-86
2022/08/16 03:29:33;;;;;;;;;;;;;;;;;;;;;
2022/08/16 03:32:18;;;;;;;9.30;5.00;;;;;;;18.39;68.71;98184.62;108551;1282;22264;-85
2022/08/16 03:35:23;;;;;;;;;;;;;;;;;;;;;
2022/08/16 03:39:17;;;;;;;8.70;4.90;;;;;;;18.35;68.70;98186.14;108823;1282;23266;-84
2022/08/16 03:41:55;;;;;;;11.00;4.80;;;;;;;18.40;68.62;98188.33;108723;1283;22451;-84
2022/08/16 03:45:49;;;;;;;9.40;5.00;;;;;;;18.39;68.61;98185.91;108726;1281;23066;-84
2022/08/16 03:48:10;;;;;;;10.70;5.40;;;;;;;18.23;68.49;98185.86;108017;1290;23317;-84
2022/08/16 03:54:41;;;;;;;10.60;5.30;;;;;;;18.24;69.09;98191.41;107959;1290;22446;-84
2022/08/16 03:57:17;;;;;;;10.30;5.20;;;;;;;18.23;68.99;98188.26;107982;1290;23165;-84
2022/08/16 03:59:50;;;;;;;11.30;5.30;;;;;;;18.26;69.07;98202.02;108034;1290;22359;-84
2022/08/16 04:02:19;;;;;;;10.80;5.80;;;;;;;18.24;68.98;98209.88;108222;1289;22410;-84
2022/08/16 04:04:50;;;;;;;13.80;5.50;;;;;;;18.16;69.08;98212.20;108076;1290;22354;-85
2022/08/16 04:07:20;;;;;;;11.60;5.30;;;;;;;18.14;68.95;98223.77;108048;1290;22502;-84
2022/08/16 04:09:53;;;;;;;23.70;6.60;;;;;;;18.07;69.03;98222.17;108232;1288;23197;-84
2022/08/16 04:12:22;;;;;;;14.50;5.40;;;;;;;18.06;69.29;98221.23;107988;1289;22510;-84
2022/08/16 04:14:49;;;;;;;16.90;6.40;;;;;;;18.13;69.31;98223.73;108095;1289;22412;-85
2022/08/16 04:17:19;;;;;;;15.10;5.80;;;;;;;18.19;69.40;98224.66;108038;1289;23112;-83
2022/08/16 04:19:47;;;;;;;11.90;5.50;;;;;;;18.23;69.29;98231.80;108039;1289;23083;-84
2022/08/16 04:22:18;;;;;;;13.80;5.40;;;;;;;18.25;69.45;98233.51;108058;1289;22305;-84
2022/08/16 04:24:54;;;;;;;9.80;5.10;;;;;;;18.24;69.29;98233.59;108381;1282;22403;-85
2022/08/16 04:27:26;;;;;;;15.60;5.20;;;;;;;18.29;69.44;98238.45;108740;1282;22268;-84
2022/08/16 04:29:56;;;;;;;12.80;5.50;;;;;;;18.41;69.63;98241.58;108773;1282;22366;-84
2022/08/16 04:32:23;;;;;;;12.10;5.50;;;;;;;18.53;69.52;98240.27;108967;1282;22363;-84
2022/08/16 04:34:53;;;;;;;11.30;5.60;;;;;;;18.63;69.58;98235.82;108711;1282;23136;-84
2022/08/16 04:37:22;;;;;;;10.70;5.70;;;;;;;18.72;69.41;98241.47;108760;1282;22184;-84
2022/08/16 04:39:54;;;;;;;12.70;5.50;;;;;;;18.79;69.24;98247.92;108656;1282;22806;-84
2022/08/16 04:42:20;;;;;;;15.90;6.30;;;;;;;18.80;69.19;98249.62;108724;1282;22398;-84
2022/08/16 04:44:48;;;;;;;16.10;5.60;;;;;;;18.87;69.55;98253.36;108689;1282;22426;-85
2022/08/16 04:47:15;;;;;;;15.60;5.50;;;;;;;18.96;69.51;98253.98;108762;1282;22269;-84
2022/08/16 04:49:43;;;;;;;17.00;6.00;;;;;;;19.07;69.57;98251.92;108708;1284;23188;-84
2022/08/16 04:52:12;;;;;;;15.60;7.00;;;;;;;19.21;69.60;98253.82;108676;1282;22362;-84
2022/08/16 04:54:40;;;;;;;14.80;7.10;;;;;;;19.34;69.66;98249.69;108721;1284;22442;-84
2022/08/16 04:57:07;;;;;;;12.90;6.40;;;;;;;19.50;69.68;98250.50;108678;1284;22367;-84
2022/08/16 04:59:34;;;;;;;16.20;6.60;;;;;;;19.63;69.52;98253.20;108704;1282;22367;-85
2022/08/16 05:02:01;;;;;;;12.50;6.00;;;;;;;19.73;69.59;98246.46;108939;1282;22602;-85
2022/08/16 05:04:28;;;;;;;12.00;5.80;;;;;;;19.82;69.46;98250.24;108773;1282;22372;-84
2022/08/16 05:06:59;;;;;;;12.30;5.60;;;;;;;19.94;69.64;98257.94;108651;1282;22538;-85
2022/08/16 05:09:46;;;;;;;9.90;4.90;;;;;;;20.03;69.52;98255.95;108519;1284;22336;-85
2022/08/16 05:12:20;;;;;;;16.40;5.10;;;;;;;20.16;69.52;98255.36;108650;1282;22273;-84
2022/08/16 05:14:47;;;;;;;13.70;5.10;;;;;;;20.33;69.64;98253.47;108688;1282;22466;-85
2022/08/16 05:17:22;;;;;;;15.90;5.70;;;;;;;20.47;69.64;98254.41;108774;1283;22322;-84
2022/08/16 05:19:53;;;;;;;11.20;5.00;;;;;;;20.64;69.50;98265.73;108489;1283;22483;-84
2022/08/16 05:22:20;;;;;;;12.20;5.30;;;;;;;20.76;69.58;98258.77;108503;1282;22359;-84
2022/08/16 05:24:52;;;;;;;11.70;5.20;;;;;;;20.90;69.57;98262.70;108634;1284;22467;-84
2022/08/16 05:27:19;;;;;;;13.40;5.80;;;;;;;21.03;69.50;98272.21;108700;1282;22329;-85
2022/08/16 05:29:48;;;;;;;11.60;5.60;;;;;;;21.16;69.42;98277.61;108614;1284;22542;-84
2022/08/16 05:32:18;;;;;;;9.80;4.80;;;;;;;21.28;69.30;98287.95;108624;1284;22452;-85
2022/08/16 05:34:50;;;;;;;11.80;5.00;;;;;;;21.40;69.52;98284.14;108651;1284;23154;-84
2022/08/16 05:37:23;;;;;;;13.10;5.00;;;;;;;21.54;69.36;98288.66;108681;1284;22928;-85
2022/08/16 05:39:53;;;;;;;9.40;5.00;;;;;;;21.70;69.34;98300.30;108763;1283;22576;-85
2022/08/16 05:42:28;;;;;;;11.70;4.70;;;;;;;21.85;69.22;98302.85;108663;1284;22236;-85
2022/08/16 05:45:00;;;;;;;11.70;4.90;;;;;;;21.99;69.18;98303.59;108637;1284;22476;-85
2022/08/16 05:47:28;;;;;;;11.50;4.90;;;;;;;22.11;69.00;98300.91;108705;1282;22444;-85
2022/08/16 05:49:55;;;;;;;14.20;5.20;;;;;;;22.24;69.01;98308.63;108704;1282;22657;-85
2022/08/16 05:52:25;;;;;;;10.60;5.30;;;;;;;22.35;68.88;98308.80;108665;1282;23062;-86
2022/08/16 05:54:53;;;;;;;10.20;4.90;;;;;;;22.49;68.84;98306.96;108654;1282;23150;-86
2022/08/16 05:57:20;;;;;;;11.20;4.70;;;;;;;22.62;68.79;98311.73;108619;1284;22160;-86
2022/08/16 05:59:54;;;;;;;10.10;4.70;;;;;;;22.74;68.85;98311.41;108621;1282;22510;-87
2022/08/16 06:02:31;;;;;;;10.50;4.70;;;;;;;22.89;68.74;98310.84;108565;1282;23116;-86
2022/08/16 06:04:59;;;;;;;11.30;4.30;;;;;;;23.05;68.72;98310.90;108655;1282;22388;-86
2022/08/16 06:07:32;;;;;;;9.50;4.20;;;;;;;23.16;68.35;98308.37;108656;1282;22259;-86
2022/08/16 06:10:08;;;;;;;9.40;4.30;;;;;;;23.25;68.02;98317.78;108611;1282;22543;-86
2022/08/16 06:12:41;;;;;;;11.60;4.60;;;;;;;23.35;68.08;98317.73;108466;1282;22327;-86
2022/08/16 06:15:13;;;;;;;11.70;4.80;;;;;;;23.52;68.01;98325.86;108640;1282;23039;-86
2022/08/16 06:17:44;;;;;;;13.40;4.40;;;;;;;23.66;67.86;98322.64;108958;1282;23123;-86
2022/08/16 06:20:23;;;;;;;15.70;4.90;;;;;;;23.84;67.85;98321.98;108576;1284;23202;-86
2022/08/16 06:22:54;;;;;;;20.30;5.50;;;;;;;23.95;67.73;98322.59;108725;1282;22596;-86
2022/08/16 06:25:26;;;;;;;17.70;5.80;;;;;;;24.10;68.03;98326.73;108646;1284;22340;-85
2022/08/16 06:27:57;;;;;;;25.70;6.10;;;;;;;24.21;67.72;98325.14;108633;1282;23258;-87
2022/08/16 06:30:31;;;;;;;22.90;6.80;;;;;;;24.35;67.76;98331.36;108712;1282;22406;-86
2022/08/16 06:33:06;;;;;;;22.20;9.20;;;;;;;24.45;67.46;98332.21;108654;1282;22473;-86
2022/08/16 06:35:33;;;;;;;20.10;8.20;;;;;;;24.48;67.25;98334.48;108658;1282;22467;-86
2022/08/16 06:38:15;;;;;;;15.90;8.40;;;;;;;24.48;67.12;98340.27;108717;1282;22451;-85
2022/08/16 06:40:49;;;;;;;22.70;6.90;;;;;;;24.58;67.24;98348.19;108793;1282;22367;-86
2022/08/16 06:43:22;;;;;;;15.70;6.80;;;;;;;24.71;67.56;98345.79;108574;1282;22400;-86
2022/08/16 06:46:03;;;;;;;13.90;6.10;;;;;;;24.96;67.83;98340.89;108646;1284;23710;-86
2022/08/16 06:48:47;;;;;;;11.70;5.50;;;;;;;25.20;67.09;98343.48;108422;1284;22292;-86
2022/08/16 06:51:44;;;;;;;9.80;4.40;;;;;;;25.41;67.05;98342.27;108805;1282;22331;-86
2022/08/16 06:54:23;;;;;;;9.90;4.20;;;;;;;25.57;66.85;98337.11;108382;1282;22474;-86
2022/08/16 06:56:52;;;;;;;9.50;4.20;;;;;;;25.70;66.13;98341.12;108658;1282;23004;-86
2022/08/16 06:59:22;;;;;;;9.30;4.10;;;;;;;25.77;65.80;98344.05;108923;1282;22365;-86
2022/08/16 07:02:08;;;;;;;8.60;4.20;;;;;;;25.76;65.05;98347.14;108833;1282;22320;-86
2022/08/16 07:04:41;;;;;;;9.30;4.50;;;;;;;25.72;65.50;98346.75;107524;1282;1492644;-86
2022/08/16 07:07:18;;;;;;;8.90;4.20;;;;;;;25.87;65.41;98350.11;108654;1282;23052;-86
2022/08/16 07:10:10;;;;;;;7.80;3.90;;;;;;;26.03;65.42;98349.65;108646;1282;22382;-87
2022/08/16 07:12:53;;;;;;;10.10;4.40;;;;;;;26.10;64.93;98346.55;108508;1282;22334;-87
2022/08/16 07:15:45;;;;;;;;;;;;;;;;;;;;;
2022/08/16 07:19:04;;;;;;;7.90;4.30;;;;;;;26.24;64.67;98351.77;108592;1282;22379;-88
2022/08/16 07:22:09;;;;;;;8.20;4.30;;;;;;;26.23;64.24;98341.85;108827;1282;22984;-87
2022/08/16 07:24:43;;;;;;;10.40;4.50;;;;;;;26.15;63.92;98345.44;108711;1282;22975;-86
2022/08/16 07:27:32;;;;;;;8.20;4.50;;;;;;;26.11;63.85;98350.48;108916;1282;23111;-86
2022/08/16 07:30:28;;;;;;;16.60;5.00;;;;;;;26.05;63.66;98357.14;108622;1282;23063;-88
2022/08/16 07:33:32;;;;;;;11.30;4.50;;;;;;;26.16;64.06;98355.83;108475;1282;22192;-88
2022/08/16 07:36:08;;;;;;;15.50;4.80;;;;;;;26.36;64.03;98358.08;108709;1284;23156;-86
2022/08/16 07:38:42;;;;;;;13.40;5.20;;;;;;;26.50;63.56;98362.45;108928;1282;22341;-87
2022/08/16 07:41:12;;;;;;;19.70;5.70;;;;;;;26.56;63.74;98356.50;108598;1282;22263;-87
2022/08/16 07:43:44;;;;;;;12.20;4.70;;;;;;;26.63;63.15;98362.16;108615;1282;22356;-87
2022/08/16 07:46:17;;;;;;;11.30;4.90;;;;;;;26.60;63.05;98369.70;108718;1282;22312;-87
2022/08/16 07:48:47;;;;;;;11.80;4.40;;;;;;;26.58;62.90;98364.20;108627;1282;22365;-89
2022/08/16 07:51:20;;;;;;;13.80;4.90;;;;;;;26.70;63.45;98366.40;108480;1282;22426;-87
2022/08/16 07:53:50;;;;;;;18.40;5.10;;;;;;;26.80;63.03;98361.41;108945;1281;22387;-88
2022/08/16 07:56:18;;;;;;;15.10;5.40;;;;;;;26.86;62.86;98364.83;108853;1282;23258;-87
2022/08/16 07:58:45;;;;;;;13.00;4.60;;;;;;;26.99;63.21;98359.71;108699;1282;23255;-88
2022/08/16 08:01:14;;;;;;;9.80;4.60;;;;;;;27.15;62.84;98362.96;108972;1282;22462;-86
2022/08/16 08:03:46;;;;;;;8.50;4.60;;;;;;;27.29;62.75;98367.73;108922;1282;22213;-87
2022/08/16 08:06:14;;;;;;;10.00;4.30;;;;;;;27.29;62.11;98370.17;108842;1282;22430;-88
2022/08/16 08:08:42;;;;;;;8.50;4.50;;;;;;;27.27;61.74;98372.31;108714;1282;22347;-89
2022/08/16 08:11:12;;;;;;;12.00;4.70;;;;;;;27.21;61.71;98372.66;108886;1282;23146;-87
2022/08/16 08:13:40;;;;;;;8.80;4.90;;;;;;;27.23;61.96;98371.92;108607;1282;22447;-87
2022/08/16 08:16:10;;;;;;;12.10;5.20;;;;;;;27.22;61.54;98373.99;108552;1282;22601;-89
2022/08/16 08:18:37;;;;;;;10.60;5.40;;;;;;;27.23;61.93;98377.41;108464;1282;22416;-88
2022/08/16 08:21:07;;;;;;;10.40;5.00;;;;;;;27.35;61.81;98377.67;108710;1282;22480;-88
2022/08/16 08:23:37;;;;;;;9.40;4.80;;;;;;;27.39;61.05;98382.92;108456;1282;22441;-87
2022/08/16 08:26:08;;;;;;;9.20;5.10;;;;;;;27.34;61.09;98387.58;108671;1282;22653;-87
2022/08/16 08:28:40;;;;;;;8.80;4.10;;;;;;;27.32;61.07;98387.67;108643;1284;22419;-86
2022/08/16 08:31:07;;;;;;;9.60;4.70;;;;;;;27.40;60.81;98395.20;108563;1284;22280;-86
2022/08/16 08:33:36;;;;;;;8.20;4.50;;;;;;;27.39;61.17;98387.43;108593;1282;22370;-89
2022/08/16 08:36:13;;;;;;;10.00;4.50;;;;;;;27.51;60.98;98389.48;108787;1282;22487;-86
2022/08/16 08:38:41;;;;;;;9.30;4.80;;;;;;;27.55;60.63;98391.39;108655;1282;22445;-87
2022/08/16 08:41:09;;;;;;;7.90;5.00;;;;;;;27.50;60.22;98395.40;108569;1282;22399;-87
2022/08/16 08:43:36;;;;;;;7.80;4.90;;;;;;;27.45;60.46;98394.60;108601;1282;22570;-87
2022/08/16 08:46:07;;;;;;;10.30;4.70;;;;;;;27.57;60.67;98395.05;108581;1282;23288;-87
2022/08/16 08:48:39;;;;;;;10.70;4.90;;;;;;;27.54;60.00;98393.06;108672;1282;22517;-88
2022/08/16 08:51:10;;;;;;;9.80;4.90;;;;;;;27.59;60.24;98398.56;108564;1282;22464;-87
2022/08/16 08:53:49;;;;;;;8.30;5.10;;;;;;;27.60;60.24;98394.65;108697;1282;22446;-88
2022/08/16 08:56:33;;;;;;;8.60;4.70;;;;;;;27.71;60.07;98395.33;108665;1282;22437;-87
2022/08/16 08:59:08;;;;;;;10.40;5.20;;;;;;;27.70;59.74;98393.86;108521;1282;22247;-87
2022/08/16 09:01:50;;;;;;;10.10;4.90;;;;;;;27.76;60.16;98393.54;108551;1282;22447;-87
2022/08/16 09:04:20;;;;;;;9.70;5.00;;;;;;;27.78;59.34;98391.34;108701;1282;22567;-87
2022/08/16 09:06:52;;;;;;;8.50;5.00;;;;;;;27.68;59.38;98394.04;108302;1284;22250;-86
2022/08/16 09:09:25;;;;;;;8.20;4.60;;;;;;;27.81;59.70;98398.37;108542;1282;22564;-88
2022/08/16 09:11:59;;;;;;;8.20;5.10;;;;;;;27.90;59.45;98396.95;108453;1284;22384;-86
2022/08/16 09:14:38;;;;;;;9.90;4.80;;;;;;;27.97;59.24;98391.09;108521;1282;23404;-87
2022/08/16 09:17:08;;;;;;;9.20;5.10;;;;;;;28.06;59.67;98389.80;108655;1282;23270;-87
2022/08/16 09:19:36;;;;;;;11.20;5.40;;;;;;;28.31;60.04;98391.14;108843;1282;22422;-85
2022/08/16 09:22:04;;;;;;;8.20;4.80;;;;;;;28.52;58.65;98392.98;108738;1282;23420;-86
2022/08/16 09:24:36;;;;;;;9.00;4.80;;;;;;;28.38;58.69;98395.32;108582;1282;22191;-86
2022/08/16 09:27:25;;;;;;;10.50;5.60;;;;;;;28.45;59.56;98397.89;108587;1282;22417;-90
2022/08/16 09:30:04;;;;;;;8.40;4.90;;;;;;;28.84;59.31;98409.73;108886;1282;22463;-92
2022/08/16 09:32:37;;;;;;;9.20;5.00;;;;;;;28.84;58.18;98405.85;108702;1284;22254;-90
2022/08/16 09:35:07;;;;;;;10.60;5.50;;;;;;;28.84;58.86;98409.73;108738;1279;22220;-89
2022/08/16 09:37:35;;;;;;;8.00;4.50;;;;;;;28.86;58.46;98404.34;108917;1282;22464;-90
2022/08/16 09:40:15;;;;;;;8.90;5.30;;;;;;;28.92;58.34;98399.16;108760;1282;22514;-90
2022/08/16 09:43:00;;;;;;;;;;;;;;;;;;;;;
2022/08/16 09:45:47;;;;;;;;;;;;;;;;;;;;;
2022/08/16 09:48:55;;;;;;;;;;;;;;;;;;;;;
2022/08/16 09:52:02;;;;;;;8.10;4.70;;;;;;;29.30;58.00;98390.54;109028;1283;22202;-93
2022/08/16 09:54:47;;;;;;;9.60;5.30;;;;;;;29.35;57.38;98392.17;108766;1282;23142;-88
2022/08/16 09:57:24;;;;;;;10.30;5.50;;;;;;;29.24;57.73;98390.93;108639;1282;23201;-87
2022/08/16 09:59:59;;;;;;;8.00;5.30;;;;;;;29.34;57.68;98399.03;108758;1281;22560;-89
2022/08/16 10:02:32;;;;;;;9.00;5.40;;;;;;;29.41;57.20;98396.45;108762;1282;22411;-86
2022/08/16 10:05:01;;;;;;;8.80;5.00;;;;;;;29.34;56.75;98397.91;108810;1282;22504;-86
2022/08/16 10:07:52;;;;;;;8.20;5.00;;;;;;;29.27;56.65;98400.60;108755;1282;22445;-88
2022/08/16 10:10:29;;;;;;;8.30;4.60;;;;;;;29.06;56.38;98401.88;108799;1281;22555;-87
2022/08/16 10:13:14;;;;;;;8.90;5.00;;;;;;;28.97;56.58;98402.89;109000;1281;22448;-86
2022/08/16 10:16:05;;;;;;;8.70;4.90;;;;;;;28.92;56.02;98405.66;108525;1283;22494;-87
2022/08/16 10:18:34;;;;;;;9.10;4.70;;;;;;;28.88;57.05;98407.41;108560;1283;22249;-87
2022/08/16 10:21:12;;;;;;;9.20;5.20;;;;;;;29.06;56.66;98401.58;108681;1282;22483;-87
2022/08/16 10:23:55;;;;;;;8.70;4.60;;;;;;;29.02;56.01;98402.60;108670;1283;22447;-88
2022/08/16 10:26:32;;;;;;;9.20;4.60;;;;;;;29.05;56.01;98402.73;108672;1283;22542;-85
2022/08/16 10:29:19;;;;;;;;;;;;;;;;;;;;;
2022/08/16 10:31:53;;;;;;;9.10;4.90;;;;;;;29.17;56.46;98403.23;108542;1284;22973;-87
2022/08/16 10:34:21;;;;;;;9.80;4.80;;;;;;;29.53;56.69;98402.07;108665;1284;23288;-87
2022/08/16 10:36:55;;;;;;;8.00;4.60;;;;;;;29.87;56.02;98407.16;108378;1283;22493;-87
2022/08/16 10:39:32;;;;;;;8.90;4.70;;;;;;;29.87;55.31;98400.22;108541;1283;22467;-87
2022/08/16 10:42:11;;;;;;;9.40;4.70;;;;;;;29.82;55.57;98398.45;108668;1283;22329;-88
2022/08/16 10:44:52;;;;;;;8.50;4.30;;;;;;;29.97;55.36;98403.95;108656;1283;22466;-88
2022/08/16 10:47:28;;;;;;;8.90;4.10;;;;;;;29.84;54.76;98405.23;108692;1283;22501;-89
2022/08/16 10:49:58;;;;;;;7.80;4.30;;;;;;;29.74;54.72;98403.08;108493;1284;22197;-87
2022/08/16 10:52:35;;;;;;;7.70;4.60;;;;;;;29.75;55.29;98398.66;108693;1284;22408;-88
2022/08/16 10:55:28;;;;;;;9.20;4.70;;;;;;;29.91;55.06;98400.89;108714;1283;23157;-88
2022/08/16 10:58:22;;;;;;;11.10;4.70;;;;;;;30.03;55.16;98403.16;108586;1284;22416;-88
2022/08/16 11:01:25;;;;;;;7.90;4.80;;;;;;;30.19;54.98;98402.49;108626;1284;22516;-89
2022/08/16 11:04:04;;;;;;;9.50;4.90;;;;;;;30.36;54.82;98403.30;108691;1283;22207;-89
2022/08/16 11:06:55;;;;;;;9.40;4.40;;;;;;;30.36;54.28;98403.29;108633;1284;22296;-90
2022/08/16 11:10:22;;;;;;;8.70;4.40;;;;;;;30.29;54.32;98404.96;108711;1282;22370;-91
2022/08/16 11:13:24;;;;;;;9.90;4.60;;;;;;;30.38;54.09;98407.95;108802;1284;23194;-91
2022/08/16 11:15:59;;;;;;;10.20;5.10;;;;;;;30.41;54.09;98406.94;108694;1283;22509;-88
2022/08/16 11:18:38;;;;;;;9.00;4.40;;;;;;;30.26;53.83;98402.95;108439;1284;23115;-89
2022/08/16 11:21:13;;;;;;;8.60;4.70;;;;;;;30.28;53.69;98403.30;108679;1283;22170;-86
2022/08/16 11:23:44;;;;;;;8.90;4.70;;;;;;;30.22;53.72;98400.77;108728;1283;22385;-89
2022/08/16 11:26:37;;;;;;;9.30;4.80;;;;;;;30.32;54.38;98406.66;108728;1283;22268;-90
2022/08/16 11:29:28;;;;;;;;;;;;;;;;;;;;;
2022/08/16 11:32:08;;;;;;;8.00;4.20;;;;;;;30.38;53.52;98406.80;108750;1284;22490;-86
2022/08/16 11:35:13;;;;;;;;;;;;;;;;;;;;;
2022/08/16 11:38:29;;;;;;;9.40;4.40;;;;;;;30.20;53.31;98404.70;108794;1283;22328;-92
2022/08/16 11:41:37;;;;;;;11.50;4.50;;;;;;;30.21;53.20;98401.59;108531;1283;22347;-91
2022/08/16 11:45:12;;;;;;;8.70;4.50;;;;;;;30.32;52.93;98399.94;108561;1284;22234;-89
2022/08/16 11:48:16;;;;;;;10.30;4.70;;;;;;;30.33;53.14;98407.45;108689;1284;22372;-90
2022/08/16 11:51:15;;;;;;;10.90;4.60;;;;;;;30.44;52.93;98410.45;108348;1287;22605;-92
2022/08/16 11:54:02;;;;;;;8.50;4.50;;;;;;;30.45;52.90;98409.80;108355;1288;23109;-88
2022/08/16 11:56:44;;;;;;;10.40;4.30;;;;;;;30.39;52.51;98403.01;108256;1285;22497;-88
2022/08/16 11:59:33;;;;;;;;;;;;;;;;;;;;;
2022/08/16 12:02:46;;;;;;;11.70;4.70;;;;;;;30.32;52.80;98401.98;108227;1288;22340;-92
2022/08/16 12:05:30;;;;;;;10.00;4.40;;;;;;;30.49;52.33;98407.83;108171;1288;22551;-88
2022/08/16 12:08:15;;;;;;;8.00;4.30;;;;;;;30.49;52.66;98397.90;108363;1288;22336;-86
2022/08/16 12:10:55;;;;;;;9.40;4.40;;;;;;;30.58;52.11;98400.98;108224;1287;22507;-88
2022/08/16 12:13:35;;;;;;;8.40;3.80;;;;;;;30.51;51.79;98406.80;108149;1288;22439;-87
2022/08/16 12:16:09;;;;;;;7.30;3.70;;;;;;;30.36;51.43;98398.27;108337;1287;22204;-89
2022/08/16 12:18:49;;;;;;;7.40;4.00;;;;;;;30.21;51.13;98398.95;108342;1287;22427;-87
2022/08/16 12:21:31;;;;;;;10.30;4.30;;;;;;;30.00;51.31;98394.86;108249;1287;22303;-87
2022/08/16 12:24:08;;;;;;;7.40;4.00;;;;;;;30.00;51.43;98390.69;108061;1288;22414;-89
2022/08/16 12:26:40;;;;;;;9.20;4.20;;;;;;;30.02;51.53;98390.01;108124;1288;22580;-89
2022/08/16 12:29:07;;;;;;;7.10;3.60;;;;;;;30.10;51.10;98392.01;108662;1283;22425;-86
2022/08/16 12:31:36;;;;;;;10.40;4.10;;;;;;;30.06;51.16;98389.05;108725;1283;22541;-88
2022/08/16 12:34:09;;;;;;;9.40;3.70;;;;;;;30.13;51.69;98386.39;108742;1282;23055;-89
2022/08/16 12:36:39;;;;;;;8.20;4.00;;;;;;;30.34;51.53;98382.92;108705;1282;22449;-88
2022/08/16 12:39:06;;;;;;;9.40;3.90;;;;;;;30.42;50.78;98390.20;108698;1284;22950;-88